Terminal Aerodrome Forecast
Issued by NWS Wilmington, OH

Current Version | Previous Version | Graphics & Text | Print | Product List | Glossary On
Versions: 1 2 3 4 5 6 7 8 9 10 11 12 13 14 15 16 17 18 19 20 21
586
FTUS41 KILN 041502 AAA
TAFDAY
TAF AMD
KDAY 041502Z 0415/0512 14010KT P6SM OVC090
     FM041600 13010KT P6SM VCSH OVC050
     FM042000 13010KT 4SM -RA BR OVC025
     FM042200 13008KT 4SM -RA BR OVC012
     FM050000 15006KT 4SM -RA BR OVC006
     FM050400 27008KT P6SM OVC004=

USA.gov is the U.S. government's official web portal to all federal, state and local government web resources and services.